Aeroporto :
LOGIN :

Iscrizione | Disclaimer

   EN    FR    IT 

 










Sommario :    VFR   VFR Marginale   IFR   IFR Intensivo   IFR Molto Intensivo
Visibilità : 
Base nubi : 
>= 8 km
>= 3000ft
5 / 8 km
1000 / 3000 ft
1500m / 5 km
500 / 1000 ft
800 / 1500m
200 / 500 ft
< 800m
< 200 ft
Simboli :   Temporali  Nebbia  Neve Forte  Precipitazioni Forti  Vento > 20 kt
SIGMETs :   Varie  Temporali  Ghiacco  Turbolenza  Onda orograficha  Ceneri Vulcaniche






- Altitudine del aeroporto : 52 ft
- Codice IATA : IOM


EGNS - Isle of Man

ULTIMO METAR :
  • 270550Z 26010KT 8000 RA FEW009 SCT020 10/09 Q1000 TEMPO 4000 +RA

METARs OBSOLETI :
  • 270520Z 28007KT 7000 RA FEW015 10/09 Q0999 TEMPO 4000 + RA
  • 270450Z 27010KT 7000 RA FEW015 10/09 Q0999 TEMPO 4000 +RA
  • 270420Z 29007KT 9999 RA FEW010 10/09 Q0999 TEMPO 4000 +RA
  • 270350Z 28011KT 5000 RA FEW009 11/10 Q0999

TAF TAF EGNS
Valido dal 27 a 06 ore il 27 a 15 ore UTC


270500Z 2706/2715 30012KT 3000 +RA FEW009 SCT018 BKN045
BECMG 2706/2708 24013KT 9999 NSW
BECMG 2708/2711 25018G28KT
PROB30
TEMPO 2708/2715 7000 SHRA



MetMap, La meteo Aeronautica in un colpo d'occhio ! - Copyright ORBIFLY Dicembre 2007 - Disclaimer

ORBIFLY MET'MAP TEAM :

Programmazione e sviluppo : Alexandra Zaïnal
Concezione : Baudouin d'Aumeries
Aiuto per la programmazione : Marc-Olivier Méhu
Supporto tecnico e logistico : Manuel Goepfert
Aiuto per la traduzione : Arnaldo La Scala

Contatto : metmap@orbifly.com




FONTI E CREDITI :

   NOAA